sensor_id;sensor_type;location;lat;lon;timestamp;pressure;altitude;pressure_sealevel;temperature;humidity
68193;BME280;55012;47.562;18.414;2022-09-28T00:01:49;97458.66;;;7.73;100.00
68193;BME280;55012;47.562;18.414;2022-09-28T00:04:15;97461.75;;;7.75;100.00
68193;BME280;55012;47.562;18.414;2022-09-28T00:06:40;97459.84;;;7.75;100.00
68193;BME280;55012;47.562;18.414;2022-09-28T00:09:06;97469.44;;;7.76;100.00
68193;BME280;55012;47.562;18.414;2022-09-28T00:11:34;97459.81;;;7.72;100.00
68193;BME280;55012;47.562;18.414;2022-09-28T00:14:00;97460.50;;;7.65;100.00
68193;BME280;55012;47.562;18.414;2022-09-28T00:16:34;97457.00;;;7.61;100.00
68193;BME280;55012;47.562;18.414;2022-09-28T00:19:00;97462.75;;;7.59;100.00
68193;BME280;55012;47.562;18.414;2022-09-28T00:21:28;97450.81;;;7.57;100.00
68193;BME280;55012;47.562;18.414;2022-09-28T00:23:56;97463.13;;;7.58;100.00
68193;BME280;55012;47.562;18.414;2022-09-28T00:29:15;97468.09;;;7.56;100.00
68193;BME280;55012;47.562;18.414;2022-09-28T00:31:41;97471.16;;;7.54;100.00
68193;BME280;55012;47.562;18.414;2022-09-28T00:34:07;97463.41;;;7.49;100.00
68193;BME280;55012;47.562;18.414;2022-09-28T00:36:33;97470.69;;;7.45;100.00
68193;BME280;55012;47.562;18.414;2022-09-28T00:39:05;97455.63;;;7.41;100.00
68193;BME280;55012;47.562;18.414;2022-09-28T00:41:31;97452.19;;;7.44;100.00
68193;BME280;55012;47.562;18.414;2022-09-28T00:47:18;97437.31;;;7.53;100.00
68193;BME280;55012;47.562;18.414;2022-09-28T00:53:30;97445.03;;;7.55;100.00
68193;BME280;55012;47.562;18.414;2022-09-28T00:55:36;97468.88;;;7.56;100.00
68193;BME280;55012;47.562;18.414;2022-09-28T00:58:04;97443.47;;;7.54;100.00
68193;BME280;55012;47.562;18.414;2022-09-28T01:00:31;97446.50;;;7.52;100.00
68193;BME280;55012;47.562;18.414;2022-09-28T01:02:57;97449.97;;;7.53;100.00
68193;BME280;55012;47.562;18.414;2022-09-28T01:05:24;97454.88;;;7.44;100.00
68193;BME280;55012;47.562;18.414;2022-09-28T01:07:50;97449.16;;;7.45;100.00
68193;BME280;55012;47.562;18.414;2022-09-28T01:10:16;97442.53;;;7.39;100.00
68193;BME280;55012;47.562;18.414;2022-09-28T01:12:42;97455.13;;;7.31;100.00
68193;BME280;55012;47.562;18.414;2022-09-28T01:15:08;97463.28;;;7.39;100.00
68193;BME280;55012;47.562;18.414;2022-09-28T01:17:40;97471.75;;;7.41;100.00
68193;BME280;55012;47.562;18.414;2022-09-28T01:20:26;97470.13;;;7.32;100.00
68193;BME280;55012;47.562;18.414;2022-09-28T01:28:30;97455.03;;;7.24;100.00
68193;BME280;55012;47.562;18.414;2022-09-28T01:31:08;97460.81;;;7.26;100.00
68193;BME280;55012;47.562;18.414;2022-09-28T01:36:10;97453.13;;;7.25;100.00
68193;BME280;55012;47.562;18.414;2022-09-28T01:41:07;97455.91;;;7.32;100.00
68193;BME280;55012;47.562;18.414;2022-09-28T01:43:38;97456.69;;;7.32;100.00
68193;BME280;55012;47.562;18.414;2022-09-28T01:46:17;97451.38;;;7.40;100.00
68193;BME280;55012;47.562;18.414;2022-09-28T01:48:51;97459.16;;;7.48;100.00
68193;BME280;55012;47.562;18.414;2022-09-28T01:51:35;97466.94;;;7.53;100.00
68193;BME280;55012;47.562;18.414;2022-09-28T01:54:17;97466.56;;;7.55;100.00
68193;BME280;55012;47.562;18.414;2022-09-28T01:56:49;97462.72;;;7.56;100.00
68193;BME280;55012;47.562;18.414;2022-09-28T01:59:22;97469.19;;;7.51;100.00
68193;BME280;55012;47.562;18.414;2022-09-28T02:01:53;97476.63;;;7.62;100.00
68193;BME280;55012;47.562;18.414;2022-09-28T02:04:28;97481.28;;;7.68;100.00
68193;BME280;55012;47.562;18.414;2022-09-28T02:07:00;97485.13;;;7.67;100.00
68193;BME280;55012;47.562;18.414;2022-09-28T02:09:35;97486.72;;;7.72;100.00
68193;BME280;55012;47.562;18.414;2022-09-28T02:12:09;97492.81;;;7.69;100.00
68193;BME280;55012;47.562;18.414;2022-09-28T02:14:39;97487.81;;;7.67;100.00
68193;BME280;55012;47.562;18.414;2022-09-28T02:17:06;97494.34;;;7.66;100.00
68193;BME280;55012;47.562;18.414;2022-09-28T02:19:32;97486.66;;;7.68;100.00
68193;BME280;55012;47.562;18.414;2022-09-28T02:24:36;97502.81;;;7.68;100.00
68193;BME280;55012;47.562;18.414;2022-09-28T02:27:07;97509.34;;;7.67;100.00
68193;BME280;55012;47.562;18.414;2022-09-28T02:29:36;97508.94;;;7.65;100.00
68193;BME280;55012;47.562;18.414;2022-09-28T02:32:02;97517.41;;;7.67;100.00
68193;BME280;55012;47.562;18.414;2022-09-28T02:34:27;97520.47;;;7.62;100.00
68193;BME280;55012;47.562;18.414;2022-09-28T02:36:53;97519.69;;;7.62;100.00
68193;BME280;55012;47.562;18.414;2022-09-28T02:39:19;97517.72;;;7.58;100.00
68193;BME280;55012;47.562;18.414;2022-09-28T02:55:28;97502.53;;;7.43;100.00
68193;BME280;55012;47.562;18.414;2022-09-28T03:04:11;97513.94;;;7.33;100.00
68193;BME280;55012;47.562;18.414;2022-09-28T03:06:53;97503.16;;;7.29;100.00
68193;BME280;55012;47.562;18.414;2022-09-28T03:09:25;97510.78;;;7.27;100.00
68193;BME280;55012;47.562;18.414;2022-09-28T03:11:56;97519.22;;;7.26;100.00
68193;BME280;55012;47.562;18.414;2022-09-28T03:14:23;97520.25;;;7.18;100.00
68193;BME280;55012;47.562;18.414;2022-09-28T03:16:48;97524.06;;;7.13;100.00
68193;BME280;55012;47.562;18.414;2022-09-28T03:19:15;97529.06;;;7.15;100.00
68193;BME280;55012;47.562;18.414;2022-09-28T03:21:42;97534.81;;;7.13;100.00
68193;BME280;55012;47.562;18.414;2022-09-28T03:24:08;97537.88;;;7.12;100.00
68193;BME280;55012;47.562;18.414;2022-09-28T03:26:38;97534.44;;;7.15;100.00
68193;BME280;55012;47.562;18.414;2022-09-28T03:29:04;97540.19;;;7.13;100.00
68193;BME280;55012;47.562;18.414;2022-09-28T03:31:29;97548.25;;;7.13;100.00
68193;BME280;55012;47.562;18.414;2022-09-28T03:33:55;97543.59;;;7.10;100.00
68193;BME280;55012;47.562;18.414;2022-09-28T03:36:20;97541.69;;;7.11;100.00
68193;BME280;55012;47.562;18.414;2022-09-28T03:38:46;97542.00;;;7.06;100.00
68193;BME280;55012;47.562;18.414;2022-09-28T03:41:12;97540.47;;;7.04;100.00
68193;BME280;55012;47.562;18.414;2022-09-28T03:43:37;97537.00;;;7.04;100.00
68193;BME280;55012;47.562;18.414;2022-09-28T03:46:03;97530.00;;;6.99;100.00
68193;BME280;55012;47.562;18.414;2022-09-28T03:48:30;97529.22;;;6.99;100.00
68193;BME280;55012;47.562;18.414;2022-09-28T03:50:58;97524.25;;;7.01;100.00
68193;BME280;55012;47.562;18.414;2022-09-28T03:53:24;97529.22;;;6.99;100.00
68193;BME280;55012;47.562;18.414;2022-09-28T03:55:50;97531.63;;;7.04;100.00
68193;BME280;55012;47.562;18.414;2022-09-28T03:58:18;97528.88;;;7.00;100.00
68193;BME280;55012;47.562;18.414;2022-09-28T04:00:44;97538.06;;;6.99;100.00
68193;BME280;55012;47.562;18.414;2022-09-28T04:03:09;97539.22;;;6.98;100.00
68193;BME280;55012;47.562;18.414;2022-09-28T04:05:35;97546.97;;;7.03;100.00
68193;BME280;55012;47.562;18.414;2022-09-28T04:08:00;97544.81;;;7.13;100.00
68193;BME280;55012;47.562;18.414;2022-09-28T04:10:26;97552.22;;;7.23;100.00
68193;BME280;55012;47.562;18.414;2022-09-28T04:12:55;97556.97;;;7.33;100.00
68193;BME280;55012;47.562;18.414;2022-09-28T04:15:24;97550.50;;;7.38;100.00
68193;BME280;55012;47.562;18.414;2022-09-28T04:17:50;97560.16;;;7.42;100.00
68193;BME280;55012;47.562;18.414;2022-09-28T04:20:16;97551.78;;;7.47;100.00
68193;BME280;55012;47.562;18.414;2022-09-28T04:22:42;97546.81;;;7.49;100.00
68193;BME280;55012;47.562;18.414;2022-09-28T04:25:08;97538.78;;;7.53;100.00
68193;BME280;55012;47.562;18.414;2022-09-28T04:27:34;97539.19;;;7.55;100.00
68193;BME280;55012;47.562;18.414;2022-09-28T04:30:18;97536.53;;;7.58;100.00
68193;BME280;55012;47.562;18.414;2022-09-28T04:32:45;97538.09;;;7.59;100.00
68193;BME280;55012;47.562;18.414;2022-09-28T04:35:11;97535.69;;;7.51;100.00
68193;BME280;55012;47.562;18.414;2022-09-28T04:37:36;97533.59;;;7.37;100.00
68193;BME280;55012;47.562;18.414;2022-09-28T04:40:02;97533.81;;;7.25;100.00
68193;BME280;55012;47.562;18.414;2022-09-28T04:42:27;97522.50;;;7.12;100.00
68193;BME280;55012;47.562;18.414;2022-09-28T04:44:53;97524.66;;;7.03;100.00
68193;BME280;55012;47.562;18.414;2022-09-28T04:47:18;97529.91;;;6.92;100.00
68193;BME280;55012;47.562;18.414;2022-09-28T04:49:44;97523.63;;;6.85;100.00
68193;BME280;55012;47.562;18.414;2022-09-28T04:52:09;97531.97;;;6.76;100.00
68193;BME280;55012;47.562;18.414;2022-09-28T04:54:35;97519.97;;;6.70;100.00
68193;BME280;55012;47.562;18.414;2022-09-28T04:57:00;97523.75;;;6.65;100.00
68193;BME280;55012;47.562;18.414;2022-09-28T04:59:27;97520.22;;;6.61;100.00
68193;BME280;55012;47.562;18.414;2022-09-28T05:01:52;97523.25;;;6.60;100.00
68193;BME280;55012;47.562;18.414;2022-09-28T05:04:18;97525.94;;;6.60;100.00
68193;BME280;55012;47.562;18.414;2022-09-28T05:06:43;97524.81;;;6.61;100.00
68193;BME280;55012;47.562;18.414;2022-09-28T05:09:09;97521.78;;;6.62;100.00
68193;BME280;55012;47.562;18.414;2022-09-28T05:11:34;97522.56;;;6.63;100.00
68193;BME280;55012;47.562;18.414;2022-09-28T05:14:00;97525.66;;;6.65;100.00
68193;BME280;55012;47.562;18.414;2022-09-28T05:16:25;97529.53;;;6.67;100.00
68193;BME280;55012;47.562;18.414;2022-09-28T05:18:55;97541.16;;;6.75;100.00
68193;BME280;55012;47.562;18.414;2022-09-28T05:21:21;97552.84;;;6.86;100.00
68193;BME280;55012;47.562;18.414;2022-09-28T05:23:49;97548.47;;;7.01;100.00
68193;BME280;55012;47.562;18.414;2022-09-28T05:26:15;97542.97;;;7.20;100.00
68193;BME280;55012;47.562;18.414;2022-09-28T05:28:40;97542.09;;;7.43;100.00
68193;BME280;55012;47.562;18.414;2022-09-28T05:31:06;97542.75;;;7.63;100.00
68193;BME280;55012;47.562;18.414;2022-09-28T05:33:32;97548.34;;;7.80;100.00
68193;BME280;55012;47.562;18.414;2022-09-28T05:35:58;97545.81;;;7.95;100.00
68193;BME280;55012;47.562;18.414;2022-09-28T05:38:24;97537.09;;;8.08;100.00
68193;BME280;55012;47.562;18.414;2022-09-28T05:40:50;97550.34;;;8.24;100.00
68193;BME280;55012;47.562;18.414;2022-09-28T05:43:15;97537.72;;;8.32;100.00
68193;BME280;55012;47.562;18.414;2022-09-28T05:45:41;97535.19;;;8.50;100.00
68193;BME280;55012;47.562;18.414;2022-09-28T05:48:06;97537.19;;;8.56;100.00
68193;BME280;55012;47.562;18.414;2022-09-28T05:50:31;97537.25;;;8.67;100.00
68193;BME280;55012;47.562;18.414;2022-09-28T05:53:02;97535.47;;;8.82;100.00
68193;BME280;55012;47.562;18.414;2022-09-28T05:55:28;97542.91;;;8.99;100.00
68193;BME280;55012;47.562;18.414;2022-09-28T05:58:05;97539.16;;;9.18;100.00
68193;BME280;55012;47.562;18.414;2022-09-28T06:00:32;97545.81;;;9.35;100.00
68193;BME280;55012;47.562;18.414;2022-09-28T06:03:03;97542.03;;;9.50;100.00
68193;BME280;55012;47.562;18.414;2022-09-28T06:05:29;97545.16;;;9.59;100.00
68193;BME280;55012;47.562;18.414;2022-09-28T06:07:56;97542.09;;;9.64;100.00
68193;BME280;55012;47.562;18.414;2022-09-28T06:10:22;97532.84;;;9.62;100.00
68193;BME280;55012;47.562;18.414;2022-09-28T06:12:53;97533.94;;;9.50;100.00
68193;BME280;55012;47.562;18.414;2022-09-28T06:15:20;97532.34;;;9.38;100.00
68193;BME280;55012;47.562;18.414;2022-09-28T06:17:46;97536.53;;;9.28;100.00
68193;BME280;55012;47.562;18.414;2022-09-28T06:20:12;97537.66;;;9.24;100.00
68193;BME280;55012;47.562;18.414;2022-09-28T06:22:37;97529.16;;;9.22;100.00
68193;BME280;55012;47.562;18.414;2022-09-28T06:25:04;97521.06;;;9.22;100.00
68193;BME280;55012;47.562;18.414;2022-09-28T06:27:31;97519.91;;;9.23;100.00
68193;BME280;55012;47.562;18.414;2022-09-28T06:29:57;97525.69;;;9.21;100.00
68193;BME280;55012;47.562;18.414;2022-09-28T06:32:25;97522.63;;;9.19;100.00
68193;BME280;55012;47.562;18.414;2022-09-28T06:34:53;97521.47;;;9.20;100.00
68193;BME280;55012;47.562;18.414;2022-09-28T06:37:19;97523.78;;;9.22;100.00
68193;BME280;55012;47.562;18.414;2022-09-28T06:39:44;97528.78;;;9.23;100.00
68193;BME280;55012;47.562;18.414;2022-09-28T06:42:09;97512.22;;;9.25;100.00
68193;BME280;55012;47.562;18.414;2022-09-28T06:44:35;97516.09;;;9.31;100.00
68193;BME280;55012;47.562;18.414;2022-09-28T06:47:00;97516.53;;;9.37;100.00
68193;BME280;55012;47.562;18.414;2022-09-28T06:49:26;97511.53;;;9.42;100.00
68193;BME280;55012;47.562;18.414;2022-09-28T06:51:54;97511.56;;;9.46;100.00
68193;BME280;55012;47.562;18.414;2022-09-28T06:54:20;97509.66;;;9.53;100.00
68193;BME280;55012;47.562;18.414;2022-09-28T06:56:50;97506.59;;;9.58;100.00
68193;BME280;55012;47.562;18.414;2022-09-28T06:59:16;97514.72;;;9.66;100.00
68193;BME280;55012;47.562;18.414;2022-09-28T07:01:41;97517.44;;;9.73;100.00
68193;BME280;55012;47.562;18.414;2022-09-28T07:04:06;97517.09;;;9.78;100.00
68193;BME280;55012;47.562;18.414;2022-09-28T07:06:32;97517.09;;;9.85;100.00
68193;BME280;55012;47.562;18.414;2022-09-28T07:08:57;97518.25;;;9.91;100.00
68193;BME280;55012;47.562;18.414;2022-09-28T07:11:26;97514.81;;;9.98;100.00
68193;BME280;55012;47.562;18.414;2022-09-28T07:13:53;97515.59;;;10.05;100.00
68193;BME280;55012;47.562;18.414;2022-09-28T07:16:18;97510.59;;;10.11;100.00
68193;BME280;55012;47.562;18.414;2022-09-28T07:18:44;97507.91;;;10.18;100.00
68193;BME280;55012;47.562;18.414;2022-09-28T07:21:09;97502.53;;;10.25;100.00
68193;BME280;55012;47.562;18.414;2022-09-28T07:23:35;97506.00;;;10.33;100.00
68193;BME280;55012;47.562;18.414;2022-09-28T07:26:04;97499.47;;;10.41;100.00
68193;BME280;55012;47.562;18.414;2022-09-28T07:28:30;97489.41;;;10.49;100.00
68193;BME280;55012;47.562;18.414;2022-09-28T07:30:58;97484.38;;;10.51;100.00
68193;BME280;55012;47.562;18.414;2022-09-28T07:33:23;97484.00;;;10.66;100.00
68193;BME280;55012;47.562;18.414;2022-09-28T07:35:53;97494.41;;;10.75;100.00
68193;BME280;55012;47.562;18.414;2022-09-28T07:38:19;97500.59;;;10.86;100.00
68193;BME280;55012;47.562;18.414;2022-09-28T07:40:45;97500.97;;;10.92;100.00
68193;BME280;55012;47.562;18.414;2022-09-28T07:43:28;97505.59;;;11.06;100.00
68193;BME280;55012;47.562;18.414;2022-09-28T07:45:54;97505.97;;;11.15;100.00
68193;BME280;55012;47.562;18.414;2022-09-28T07:48:20;97504.41;;;11.17;100.00
68193;BME280;55012;47.562;18.414;2022-09-28T07:50:50;97512.47;;;11.32;100.00
68193;BME280;55012;47.562;18.414;2022-09-28T07:53:21;97514.00;;;11.47;100.00
68193;BME280;55012;47.562;18.414;2022-09-28T07:55:54;97512.03;;;11.54;100.00
68193;BME280;55012;47.562;18.414;2022-09-28T07:58:21;97510.47;;;11.61;100.00
68193;BME280;55012;47.562;18.414;2022-09-28T08:00:48;97511.53;;;11.74;100.00
68193;BME280;55012;47.562;18.414;2022-09-28T08:03:15;97509.22;;;11.79;100.00
68193;BME280;55012;47.562;18.414;2022-09-28T08:05:41;97503.41;;;11.85;100.00
68193;BME280;55012;47.562;18.414;2022-09-28T08:08:08;97508.03;;;11.88;100.00
68193;BME280;55012;47.562;18.414;2022-09-28T08:10:34;97508.00;;;11.95;100.00
68193;BME280;55012;47.562;18.414;2022-09-28T08:12:59;97493.66;;;11.98;100.00
68193;BME280;55012;47.562;18.414;2022-09-28T08:15:30;97495.19;;;11.99;100.00
68193;BME280;55012;47.562;18.414;2022-09-28T08:18:00;97479.31;;;12.01;100.00
68193;BME280;55012;47.562;18.414;2022-09-28T08:20:25;97472.75;;;11.98;100.00
68193;BME280;55012;47.562;18.414;2022-09-28T08:23:09;97476.22;;;12.02;100.00
68193;BME280;55012;47.562;18.414;2022-09-28T08:25:36;97479.31;;;12.01;100.00
68193;BME280;55012;47.562;18.414;2022-09-28T08:28:03;97492.03;;;12.11;100.00
68193;BME280;55012;47.562;18.414;2022-09-28T08:30:30;97485.44;;;12.12;100.00
68193;BME280;55012;47.562;18.414;2022-09-28T08:32:56;97488.88;;;12.20;100.00
68193;BME280;55012;47.562;18.414;2022-09-28T08:35:22;97479.97;;;12.19;100.00
68193;BME280;55012;47.562;18.414;2022-09-28T08:37:51;97464.78;;;12.29;100.00
68193;BME280;55012;47.562;18.414;2022-09-28T08:40:23;97473.28;;;12.34;100.00
68193;BME280;55012;47.562;18.414;2022-09-28T08:42:52;97474.78;;;12.39;100.00
68193;BME280;55012;47.562;18.414;2022-09-28T08:45:27;97473.25;;;12.38;100.00
68193;BME280;55012;47.562;18.414;2022-09-28T08:48:16;97475.13;;;12.45;100.00
68193;BME280;55012;47.562;18.414;2022-09-28T08:51:11;97468.88;;;12.51;100.00
68193;BME280;55012;47.562;18.414;2022-09-28T08:54:03;97468.84;;;12.55;100.00
68193;BME280;55012;47.562;18.414;2022-09-28T08:56:41;97471.22;;;12.49;100.00
68193;BME280;55012;47.562;18.414;2022-09-28T08:59:19;97454.91;;;12.53;100.00
68193;BME280;55012;47.562;18.414;2022-09-28T09:01:49;97462.66;;;12.54;100.00
68193;BME280;55012;47.562;18.414;2022-09-28T09:04:17;97460.28;;;12.60;100.00
68193;BME280;55012;47.562;18.414;2022-09-28T09:07:06;97471.84;;;12.68;100.00
68193;BME280;55012;47.562;18.414;2022-09-28T09:09:48;97465.66;;;12.63;100.00
68193;BME280;55012;47.562;18.414;2022-09-28T09:15:02;97460.53;;;12.73;100.00
68193;BME280;55012;47.562;18.414;2022-09-28T09:22:59;97470.19;;;13.15;100.00
68193;BME280;55012;47.562;18.414;2022-09-28T09:25:41;97473.97;;;13.28;100.00
68193;BME280;55012;47.562;18.414;2022-09-28T09:50:23;97473.53;;;13.64;100.00
68193;BME280;55012;47.562;18.414;2022-09-28T09:53:10;97454.13;;;13.65;100.00
68193;BME280;55012;47.562;18.414;2022-09-28T09:55:43;97463.75;;;13.70;100.00
68193;BME280;55012;47.562;18.414;2022-09-28T09:58:17;97468.50;;;13.62;100.00
68193;BME280;55012;47.562;18.414;2022-09-28T10:00:49;97445.97;;;13.65;100.00
68193;BME280;55012;47.562;18.414;2022-09-28T10:03:21;97441.69;;;13.64;100.00
68193;BME280;55012;47.562;18.414;2022-09-28T10:05:53;97436.25;;;13.64;100.00
68193;BME280;55012;47.562;18.414;2022-09-28T10:08:20;97437.84;;;13.62;100.00
68193;BME280;55012;47.562;18.414;2022-09-28T10:11:07;97442.09;;;13.66;100.00
68193;BME280;55012;47.562;18.414;2022-09-28T10:13:37;97448.28;;;13.67;100.00
68193;BME280;55012;47.562;18.414;2022-09-28T10:16:04;97439.38;;;13.66;100.00
68193;BME280;55012;47.562;18.414;2022-09-28T10:18:30;97432.94;;;13.80;100.00
68193;BME280;55012;47.562;18.414;2022-09-28T10:20:56;97437.59;;;13.80;100.00
68193;BME280;55012;47.562;18.414;2022-09-28T10:23:33;97442.44;;;13.95;100.00
68193;BME280;55012;47.562;18.414;2022-09-28T10:26:14;97422.53;;;14.02;100.00
68193;BME280;55012;47.562;18.414;2022-09-28T10:28:49;97423.72;;;14.01;100.00
68193;BME280;55012;47.562;18.414;2022-09-28T10:31:36;97430.34;;;14.00;100.00
68193;BME280;55012;47.562;18.414;2022-09-28T10:34:03;97430.38;;;13.96;100.00
68193;BME280;55012;47.562;18.414;2022-09-28T10:36:30;97413.47;;;13.85;100.00
68193;BME280;55012;47.562;18.414;2022-09-28T10:39:03;97419.38;;;14.07;100.00
68193;BME280;55012;47.562;18.414;2022-09-28T10:41:30;97416.50;;;14.14;100.00
68193;BME280;55012;47.562;18.414;2022-09-28T10:44:00;97403.19;;;14.23;100.00
68193;BME280;55012;47.562;18.414;2022-09-28T10:46:33;97386.56;;;14.41;100.00
68193;BME280;55012;47.562;18.414;2022-09-28T10:49:03;97382.66;;;14.42;100.00
68193;BME280;55012;47.562;18.414;2022-09-28T10:51:47;97368.72;;;14.40;100.00
68193;BME280;55012;47.562;18.414;2022-09-28T10:56:50;97365.53;;;14.45;100.00
68193;BME280;55012;47.562;18.414;2022-09-28T11:01:56;97366.63;;;14.48;100.00
68193;BME280;55012;47.562;18.414;2022-09-28T11:04:26;97326.53;;;14.52;100.00
68193;BME280;55012;47.562;18.414;2022-09-28T11:06:53;97322.88;;;14.82;100.00
68193;BME280;55012;47.562;18.414;2022-09-28T11:09:31;97331.09;;;14.98;100.00
68193;BME280;55012;47.562;18.414;2022-09-28T11:11:58;97328.19;;;15.25;100.00
68193;BME280;55012;47.562;18.414;2022-09-28T11:14:44;97326.16;;;15.45;100.00
68193;BME280;55012;47.562;18.414;2022-09-28T11:17:30;97324.44;;;15.71;100.00
68193;BME280;55012;47.562;18.414;2022-09-28T11:22:47;97313.13;;;15.89;100.00
68193;BME280;55012;47.562;18.414;2022-09-28T11:30:43;97299.28;;;15.96;100.00
68193;BME280;55012;47.562;18.414;2022-09-28T11:33:14;97288.97;;;16.04;100.00
68193;BME280;55012;47.562;18.414;2022-09-28T11:36:13;97246.34;;;16.10;100.00
68193;BME280;55012;47.562;18.414;2022-09-28T11:47:09;97134.28;;;16.05;100.00
68193;BME280;55012;47.562;18.414;2022-09-28T11:52:22;97050.56;;;15.76;100.00
68193;BME280;55012;47.562;18.414;2022-09-28T11:55:00;97015.25;;;15.85;100.00
68193;BME280;55012;47.562;18.414;2022-09-28T11:57:35;97007.59;;;15.80;100.00
68193;BME280;55012;47.562;18.414;2022-09-28T12:00:20;96989.31;;;15.81;100.00
68193;BME280;55012;47.562;18.414;2022-09-28T12:05:36;96941.41;;;16.05;100.00
68193;BME280;55012;47.562;18.414;2022-09-28T12:08:29;96927.13;;;16.26;100.00
68193;BME280;55012;47.562;18.414;2022-09-28T12:13:27;96874.16;;;16.37;100.00
68193;BME280;55012;47.562;18.414;2022-09-28T12:15:58;96844.81;;;16.28;100.00
68193;BME280;55012;47.562;18.414;2022-09-28T12:23:51;96852.44;;;16.68;100.00
68193;BME280;55012;47.562;18.414;2022-09-28T12:29:23;96838.44;;;16.78;100.00
68193;BME280;55012;47.562;18.414;2022-09-28T12:32:03;96828.63;;;16.68;100.00
68193;BME280;55012;47.562;18.414;2022-09-28T12:34:31;96863.91;;;16.75;100.00
68193;BME280;55012;47.562;18.414;2022-09-28T12:45:51;96876.88;;;16.84;100.00
68193;BME280;55012;47.562;18.414;2022-09-28T12:49:02;96888.22;;;17.04;100.00
68193;BME280;55012;47.562;18.414;2022-09-28T12:56:47;96886.56;;;17.29;100.00
68193;BME280;55012;47.562;18.414;2022-09-28T12:59:26;96925.34;;;17.15;100.00
68193;BME280;55012;47.562;18.414;2022-09-28T13:10:29;96908.97;;;17.15;100.00
68193;BME280;55012;47.562;18.414;2022-09-28T13:16:12;96892.66;;;17.55;100.00
68193;BME280;55012;47.562;18.414;2022-09-28T13:23:45;96876.06;;;17.49;100.00
68193;BME280;55012;47.562;18.414;2022-09-28T13:26:21;96868.19;;;17.51;100.00
68193;BME280;55012;47.562;18.414;2022-09-28T13:28:50;96906.03;;;17.31;100.00
68193;BME280;55012;47.562;18.414;2022-09-28T13:31:22;96920.75;;;17.11;100.00
68193;BME280;55012;47.562;18.414;2022-09-28T13:33:55;96896.13;;;16.80;100.00
68193;BME280;55012;47.562;18.414;2022-09-28T13:38:54;96901.31;;;16.88;100.00
68193;BME280;55012;47.562;18.414;2022-09-28T13:41:38;96892.94;;;16.82;100.00
68193;BME280;55012;47.562;18.414;2022-09-28T13:52:38;96889.34;;;17.07;100.00
68193;BME280;55012;47.562;18.414;2022-09-28T13:58:01;96904.44;;;17.42;100.00
68193;BME280;55012;47.562;18.414;2022-09-28T14:00:42;96892.78;;;17.73;100.00
68193;BME280;55012;47.562;18.414;2022-09-28T14:06:20;96913.31;;;17.87;100.00
68193;BME280;55012;47.562;18.414;2022-09-28T14:16:34;96932.31;;;17.59;100.00
68193;BME280;55012;47.562;18.414;2022-09-28T14:19:02;96900.25;;;17.60;100.00
68193;BME280;55012;47.562;18.414;2022-09-28T14:21:45;96891.59;;;17.61;100.00
68193;BME280;55012;47.562;18.414;2022-09-28T14:30:25;96890.63;;;18.08;100.00
68193;BME280;55012;47.562;18.414;2022-09-28T14:32:54;96906.78;;;18.34;100.00
68193;BME280;55012;47.562;18.414;2022-09-28T14:35:38;96889.69;;;18.11;100.00
68193;BME280;55012;47.562;18.414;2022-09-28T14:38:13;96896.53;;;18.07;100.00
68193;BME280;55012;47.562;18.414;2022-09-28T14:41:09;96925.16;;;17.84;100.00
68193;BME280;55012;47.562;18.414;2022-09-28T14:54:25;96885.34;;;16.64;100.00
68193;BME280;55012;47.562;18.414;2022-09-28T14:59:19;96904.84;;;16.28;100.00
68193;BME280;55012;47.562;18.414;2022-09-28T15:01:52;96926.78;;;16.12;100.00
68193;BME280;55012;47.562;18.414;2022-09-28T15:04:19;96932.06;;;16.06;100.00
68193;BME280;55012;47.562;18.414;2022-09-28T15:06:49;96935.75;;;15.99;100.00
68193;BME280;55012;47.562;18.414;2022-09-28T15:09:46;96937.06;;;15.95;100.00
68193;BME280;55012;47.562;18.414;2022-09-28T15:12:25;96963.44;;;15.72;100.00
68193;BME280;55012;47.562;18.414;2022-09-28T15:14:59;96947.38;;;15.62;100.00
68193;BME280;55012;47.562;18.414;2022-09-28T15:17:37;96937.41;;;15.55;100.00
68193;BME280;55012;47.562;18.414;2022-09-28T15:22:53;96931.69;;;15.66;100.00
68193;BME280;55012;47.562;18.414;2022-09-28T15:25:30;96944.69;;;15.75;100.00
68193;BME280;55012;47.562;18.414;2022-09-28T15:28:01;96947.28;;;15.65;100.00
68193;BME280;55012;47.562;18.414;2022-09-28T15:30:37;96959.91;;;15.59;100.00
68193;BME280;55012;47.562;18.414;2022-09-28T15:33:03;96972.44;;;15.57;100.00
68193;BME280;55012;47.562;18.414;2022-09-28T15:36:00;96980.03;;;15.49;100.00
68193;BME280;55012;47.562;18.414;2022-09-28T15:38:28;96978.91;;;15.34;100.00
68193;BME280;55012;47.562;18.414;2022-09-28T15:40:59;96969.84;;;15.37;100.00
68193;BME280;55012;47.562;18.414;2022-09-28T15:43:29;97003.94;;;15.29;100.00
68193;BME280;55012;47.562;18.414;2022-09-28T15:51:22;97022.59;;;15.14;100.00
68193;BME280;55012;47.562;18.414;2022-09-28T15:54:04;97038.63;;;15.12;100.00
68193;BME280;55012;47.562;18.414;2022-09-28T15:56:55;97038.44;;;15.19;100.00
68193;BME280;55012;47.562;18.414;2022-09-28T16:02:19;97036.66;;;15.12;100.00
68193;BME280;55012;47.562;18.414;2022-09-28T16:04:50;97037.94;;;15.08;100.00
68193;BME280;55012;47.562;18.414;2022-09-28T16:07:23;97034.53;;;15.04;100.00
68193;BME280;55012;47.562;18.414;2022-09-28T16:12:18;97042.88;;;14.97;100.00
68193;BME280;55012;47.562;18.414;2022-09-28T16:14:50;97051.16;;;14.93;100.00
68193;BME280;55012;47.562;18.414;2022-09-28T16:17:29;97045.88;;;14.86;100.00
68193;BME280;55012;47.562;18.414;2022-09-28T16:20:03;97061.78;;;14.87;100.00
68193;BME280;55012;47.562;18.414;2022-09-28T16:22:42;97077.28;;;14.74;100.00